Time;durP1;ratioP1;P1;durP2;ratioP2;P2;SDS_P1;SDS_P2;PMS_P1;PMS_P2;Temp;Humidity;BMP_temperature;BMP_pressure;BME280_temperature;BME280_humidity;BME280_pressure;Samples;Min_cycle;Max_cycle;Signal;HPM_P1;HPM_P2
2022/03/04 00:01:13;;;;;;;23.40;14.87;;;;;;;;;;5003956;28;20179;-77
2022/03/04 00:03:39;;;;;;;21.97;13.80;;;;;;;;;;5005547;28;20198;-77
2022/03/04 00:06:05;;;;;;;20.27;13.13;;;;;;;;;;5021845;28;20578;-77
2022/03/04 00:08:32;;;;;;;22.70;14.43;;;;;;;;;;5006274;28;20309;-77
2022/03/04 00:10:58;;;;;;;23.07;13.80;;;;;;;;;;5005178;28;20191;-76
2022/03/04 00:13:24;;;;;;;22.30;13.57;;;;;;;;;;5003330;28;20219;-77
2022/03/04 00:15:51;;;;;;;25.60;15.13;;;;;;;;;;5003224;28;20188;-77
2022/03/04 00:18:17;;;;;;;22.30;14.33;;;;;;;;;;5003784;28;20670;-77
2022/03/04 00:20:43;;;;;;;24.53;14.30;;;;;;;;;;5006650;28;20286;-77
2022/03/04 00:23:09;;;;;;;23.50;15.00;;;;;;;;;;5001946;28;20671;-77
2022/03/04 00:25:36;;;;;;;21.93;14.17;;;;;;;;;;5002809;28;20245;-77
2022/03/04 00:28:02;;;;;;;23.63;14.47;;;;;;;;;;5007494;28;20225;-77
2022/03/04 00:30:28;;;;;;;23.27;14.83;;;;;;;;;;5004869;28;20195;-77
2022/03/04 00:32:54;;;;;;;24.70;14.83;;;;;;;;;;5010845;28;20183;-77
2022/03/04 00:35:21;;;;;;;23.03;15.40;;;;;;;;;;5021254;28;20230;-77
2022/03/04 00:37:47;;;;;;;25.43;15.53;;;;;;;;;;5011524;28;20214;-78
2022/03/04 00:40:14;;;;;;;28.47;17.43;;;;;;;;;;5011789;28;20184;-77
2022/03/04 00:42:40;;;;;;;27.80;16.77;;;;;;;;;;5003456;28;20194;-77
2022/03/04 00:45:06;;;;;;;26.60;16.77;;;;;;;;;;5008981;28;20281;-77
2022/03/04 00:47:33;;;;;;;24.53;15.27;;;;;;;;;;5008163;28;20215;-77
2022/03/04 00:49:59;;;;;;;24.23;15.90;;;;;;;;;;5010194;28;20179;-77
2022/03/04 00:52:25;;;;;;;25.77;15.40;;;;;;;;;;5006715;28;20195;-77
2022/03/04 00:54:51;;;;;;;23.10;14.97;;;;;;;;;;5008034;28;20183;-76
2022/03/04 00:57:17;;;;;;;24.97;15.10;;;;;;;;;;5002218;28;20222;-76
2022/03/04 00:59:44;;;;;;;23.83;15.53;;;;;;;;;;4998089;28;20628;-75
2022/03/04 01:02:10;;;;;;;25.97;16.43;;;;;;;;;;5007419;28;20192;-77
2022/03/04 01:04:36;;;;;;;26.80;16.53;;;;;;;;;;5009098;28;20184;-78
2022/03/04 01:07:02;;;;;;;26.17;16.47;;;;;;;;;;5004023;28;20219;-79
2022/03/04 01:09:28;;;;;;;24.73;14.40;;;;;;;;;;5008840;28;20222;-78
2022/03/04 01:11:54;;;;;;;23.90;15.47;;;;;;;;;;5004512;28;20208;-78
2022/03/04 01:14:21;;;;;;;21.87;13.90;;;;;;;;;;5008368;28;20214;-78
2022/03/04 01:16:47;;;;;;;23.40;15.10;;;;;;;;;;5007954;28;20207;-78
2022/03/04 01:19:13;;;;;;;24.40;15.13;;;;;;;;;;5007266;28;20206;-77
2022/03/04 01:21:40;;;;;;;25.23;16.93;;;;;;;;;;5006536;28;20183;-77
2022/03/04 01:24:07;;;;;;;24.13;16.17;;;;;;;;;;5011064;28;20179;-77
2022/03/04 01:26:33;;;;;;;24.93;15.40;;;;;;;;;;4990055;28;20298;-76
2022/03/04 01:28:59;;;;;;;26.60;16.90;;;;;;;;;;5006100;28;20187;-77
2022/03/04 01:31:25;;;;;;;23.90;16.07;;;;;;;;;;5000894;28;20662;-78
2022/03/04 01:33:52;;;;;;;24.03;15.80;;;;;;;;;;5003094;28;20548;-75
2022/03/04 01:36:18;;;;;;;22.50;15.17;;;;;;;;;;5005908;28;20187;-77
2022/03/04 01:38:44;;;;;;;26.30;17.33;;;;;;;;;;5005165;28;20212;-77
2022/03/04 01:41:10;;;;;;;28.93;16.70;;;;;;;;;;5013528;28;20261;-78
2022/03/04 01:43:37;;;;;;;27.77;17.47;;;;;;;;;;5010243;28;20641;-78
2022/03/04 01:46:12;;;;;;;29.50;17.43;;;;;;;;;;5008982;28;20228;-77
2022/03/04 01:48:39;;;;;;;25.60;16.17;;;;;;;;;;5007384;28;20179;-78
2022/03/04 01:51:05;;;;;;;26.83;17.30;;;;;;;;;;5007979;28;20180;-76
2022/03/04 01:53:34;;;;;;;30.13;17.60;;;;;;;;;;5006706;28;20183;-77
2022/03/04 01:56:00;;;;;;;29.73;17.73;;;;;;;;;;5006261;28;20202;-76
2022/03/04 01:58:26;;;;;;;30.00;19.03;;;;;;;;;;5004177;28;20267;-76
2022/03/04 02:00:53;;;;;;;30.20;17.63;;;;;;;;;;5003656;28;20199;-78
2022/03/04 02:03:19;;;;;;;33.87;18.70;;;;;;;;;;5008233;28;20196;-77
2022/03/04 02:05:45;;;;;;;29.43;18.60;;;;;;;;;;5001194;28;20253;-77
2022/03/04 02:08:11;;;;;;;29.20;18.37;;;;;;;;;;5001181;28;20233;-77
2022/03/04 02:10:38;;;;;;;30.73;20.27;;;;;;;;;;5006589;28;20186;-78
2022/03/04 02:13:04;;;;;;;31.57;18.60;;;;;;;;;;5004198;28;20198;-78
2022/03/04 02:15:30;;;;;;;36.03;19.10;;;;;;;;;;5004734;28;20210;-76
2022/03/04 02:17:56;;;;;;;27.43;18.10;;;;;;;;;;5005645;28;20223;-78
2022/03/04 02:20:22;;;;;;;30.47;18.43;;;;;;;;;;5006940;28;20183;-77
2022/03/04 02:22:50;;;;;;;28.67;18.23;;;;;;;;;;5005342;28;20305;-78
2022/03/04 02:25:16;;;;;;;26.40;17.17;;;;;;;;;;5010265;28;20183;-76
2022/03/04 02:27:42;;;;;;;29.00;18.47;;;;;;;;;;5001054;28;20246;-77
2022/03/04 02:30:09;;;;;;;28.90;17.77;;;;;;;;;;5010832;28;20191;-77
2022/03/04 02:32:35;;;;;;;27.73;17.87;;;;;;;;;;5009029;28;20191;-78
2022/03/04 02:35:03;;;;;;;28.73;18.43;;;;;;;;;;5005683;28;20807;-75
2022/03/04 02:37:29;;;;;;;27.13;17.60;;;;;;;;;;5004786;28;20199;-78
2022/03/04 02:39:55;;;;;;;27.47;16.90;;;;;;;;;;5004813;28;20266;-78
2022/03/04 02:42:22;;;;;;;26.00;17.40;;;;;;;;;;5008188;28;20204;-78
2022/03/04 02:44:48;;;;;;;28.13;17.60;;;;;;;;;;5003781;28;20175;-78
2022/03/04 02:47:14;;;;;;;28.13;18.10;;;;;;;;;;5001249;28;20199;-78
2022/03/04 02:49:41;;;;;;;27.63;18.07;;;;;;;;;;5001731;28;20237;-78
2022/03/04 02:52:07;;;;;;;30.17;19.03;;;;;;;;;;5009354;28;20187;-78
2022/03/04 02:54:34;;;;;;;28.70;18.10;;;;;;;;;;5007804;28;20198;-78
2022/03/04 02:57:00;;;;;;;26.67;17.70;;;;;;;;;;5000472;28;20210;-75
2022/03/04 02:59:27;;;;;;;28.73;18.17;;;;;;;;;;4989104;28;20216;-78
2022/03/04 03:01:53;;;;;;;30.80;18.83;;;;;;;;;;5002616;28;20194;-78
2022/03/04 03:04:19;;;;;;;31.73;20.33;;;;;;;;;;5001900;28;20198;-78
2022/03/04 03:06:45;;;;;;;34.10;19.73;;;;;;;;;;5010379;28;20203;-77
2022/03/04 03:09:11;;;;;;;28.57;18.37;;;;;;;;;;5006521;28;20183;-78
2022/03/04 03:11:38;;;;;;;33.63;20.40;;;;;;;;;;5004924;28;20333;-78
2022/03/04 03:14:04;;;;;;;29.53;19.10;;;;;;;;;;5005073;28;20187;-78
2022/03/04 03:16:30;;;;;;;29.00;18.47;;;;;;;;;;5004239;28;20239;-78
2022/03/04 03:18:56;;;;;;;30.33;19.10;;;;;;;;;;5005156;28;20219;-76
2022/03/04 03:21:22;;;;;;;29.50;19.43;;;;;;;;;;4995353;28;20191;-78
2022/03/04 03:23:49;;;;;;;31.07;19.63;;;;;;;;;;5002542;28;20226;-77
2022/03/04 03:26:16;;;;;;;30.07;18.93;;;;;;;;;;5004475;28;20183;-76
2022/03/04 03:28:42;;;;;;;31.50;19.20;;;;;;;;;;4983478;28;20183;-76
2022/03/04 03:31:08;;;;;;;31.17;18.60;;;;;;;;;;4996817;28;20597;-78
2022/03/04 03:33:37;;;;;;;29.67;19.07;;;;;;;;;;5001114;28;21194;-78
2022/03/04 03:36:03;;;;;;;31.23;19.10;;;;;;;;;;4993105;28;20247;-78
2022/03/04 03:38:30;;;;;;;29.43;18.40;;;;;;;;;;5005933;28;20219;-78
2022/03/04 03:40:56;;;;;;;27.40;17.20;;;;;;;;;;5005644;28;20670;-77
2022/03/04 03:43:22;;;;;;;29.90;18.97;;;;;;;;;;5011312;28;20197;-77
2022/03/04 03:45:48;;;;;;;31.67;18.70;;;;;;;;;;5006877;28;20194;-77
2022/03/04 03:48:14;;;;;;;32.53;20.10;;;;;;;;;;5009873;28;20246;-77
2022/03/04 03:50:40;;;;;;;31.13;20.33;;;;;;;;;;5004263;28;20183;-76
2022/03/04 03:53:08;;;;;;;36.07;21.13;;;;;;;;;;5008247;28;20188;-77
2022/03/04 03:55:34;;;;;;;31.30;19.83;;;;;;;;;;5004520;28;20192;-77
2022/03/04 03:58:00;;;;;;;29.90;19.27;;;;;;;;;;5002549;28;20207;-76
2022/03/04 04:00:27;;;;;;;30.80;19.93;;;;;;;;;;4998621;28;20187;-78
2022/03/04 04:02:54;;;;;;;32.23;20.80;;;;;;;;;;5007487;28;20180;-77
2022/03/04 04:05:20;;;;;;;31.27;19.63;;;;;;;;;;5005224;28;20175;-78
2022/03/04 04:07:46;;;;;;;30.83;20.07;;;;;;;;;;5009705;28;20682;-78
2022/03/04 04:10:12;;;;;;;29.17;18.40;;;;;;;;;;5007191;28;20182;-78
2022/03/04 04:12:38;;;;;;;31.43;19.30;;;;;;;;;;5003628;28;20183;-78
2022/03/04 04:15:06;;;;;;;31.47;19.30;;;;;;;;;;5013184;28;20295;-78
2022/03/04 04:17:32;;;;;;;28.17;17.83;;;;;;;;;;5004025;28;20697;-78
2022/03/04 04:19:58;;;;;;;31.00;19.10;;;;;;;;;;5008597;28;20221;-78
2022/03/04 04:22:24;;;;;;;30.93;19.13;;;;;;;;;;5008280;28;20559;-77
2022/03/04 04:24:50;;;;;;;29.03;18.60;;;;;;;;;;5005300;28;20183;-77
2022/03/04 04:27:16;;;;;;;32.57;20.40;;;;;;;;;;5004774;28;20601;-78
2022/03/04 04:29:43;;;;;;;30.47;19.77;;;;;;;;;;5006527;28;20180;-77
2022/03/04 04:32:09;;;;;;;32.20;18.53;;;;;;;;;;5008564;28;20187;-78
2022/03/04 04:34:35;;;;;;;30.13;20.43;;;;;;;;;;5005426;28;20271;-78
2022/03/04 04:37:02;;;;;;;31.13;19.73;;;;;;;;;;5011603;28;20679;-77
2022/03/04 04:39:28;;;;;;;31.07;19.10;;;;;;;;;;5015285;28;20627;-77
2022/03/04 04:41:54;;;;;;;29.40;19.23;;;;;;;;;;5011117;28;20167;-77
2022/03/04 04:44:20;;;;;;;31.83;19.50;;;;;;;;;;5028174;28;20557;-77
2022/03/04 04:46:46;;;;;;;33.40;20.07;;;;;;;;;;5005310;28;20735;-77
2022/03/04 04:49:13;;;;;;;29.97;18.73;;;;;;;;;;5011859;28;20215;-77
2022/03/04 04:51:39;;;;;;;34.43;19.93;;;;;;;;;;5009348;28;20191;-78
2022/03/04 04:54:05;;;;;;;31.50;19.67;;;;;;;;;;5005539;28;20237;-78
2022/03/04 04:56:31;;;;;;;32.83;19.97;;;;;;;;;;5009720;28;20211;-78
2022/03/04 04:58:57;;;;;;;31.43;18.67;;;;;;;;;;5010561;28;20195;-78
2022/03/04 05:01:23;;;;;;;32.80;19.50;;;;;;;;;;5008653;28;20182;-77
2022/03/04 05:03:50;;;;;;;33.60;20.23;;;;;;;;;;5008309;28;20765;-79
2022/03/04 05:06:16;;;;;;;32.33;19.57;;;;;;;;;;5009376;28;20557;-79
2022/03/04 05:08:42;;;;;;;32.80;19.63;;;;;;;;;;5010537;28;20664;-77
2022/03/04 05:11:08;;;;;;;34.83;19.83;;;;;;;;;;5016458;28;20179;-78
2022/03/04 05:13:34;;;;;;;32.77;20.40;;;;;;;;;;5020147;28;20178;-79
2022/03/04 05:16:00;;;;;;;29.47;19.70;;;;;;;;;;5026141;28;20196;-79
2022/03/04 05:18:26;;;;;;;32.97;20.67;;;;;;;;;;5026247;28;20227;-76
2022/03/04 05:20:53;;;;;;;33.27;21.07;;;;;;;;;;5023638;28;20192;-78
2022/03/04 05:26:04;;;;;;;35.73;20.60;;;;;;;;;;4998830;28;20250;-80
2022/03/04 05:28:30;;;;;;;34.20;21.37;;;;;;;;;;5010689;28;20200;-80
2022/03/04 05:30:56;;;;;;;38.87;22.90;;;;;;;;;;5030462;28;20191;-79
2022/03/04 05:33:22;;;;;;;34.80;21.33;;;;;;;;;;5013476;28;20183;-80
2022/03/04 05:35:48;;;;;;;35.77;23.07;;;;;;;;;;5026170;28;20568;-80
2022/03/04 05:38:15;;;;;;;36.13;22.17;;;;;;;;;;5002101;28;20243;-81
2022/03/04 05:40:41;;;;;;;35.30;21.40;;;;;;;;;;5019078;28;20184;-81
2022/03/04 05:43:08;;;;;;;40.23;22.70;;;;;;;;;;5010871;28;20190;-81
2022/03/04 05:45:34;;;;;;;37.93;22.20;;;;;;;;;;5005491;28;20184;-80
2022/03/04 05:48:01;;;;;;;33.87;21.33;;;;;;;;;;5006123;28;20211;-80
2022/03/04 05:50:27;;;;;;;35.50;22.33;;;;;;;;;;5027284;28;20237;-80
2022/03/04 05:52:54;;;;;;;34.87;22.20;;;;;;;;;;4996124;28;20195;-80
2022/03/04 05:55:20;;;;;;;33.20;20.80;;;;;;;;;;5014529;28;20655;-80
2022/03/04 05:57:47;;;;;;;31.10;20.57;;;;;;;;;;5008707;28;20788;-80
2022/03/04 06:00:14;;;;;;;33.97;21.80;;;;;;;;;;5011271;28;20184;-80
2022/03/04 06:02:41;;;;;;;32.67;21.90;;;;;;;;;;5011425;28;20176;-80
2022/03/04 06:05:08;;;;;;;37.93;21.50;;;;;;;;;;5013710;28;20195;-83
2022/03/04 06:07:35;;;;;;;38.70;21.93;;;;;;;;;;5011423;28;20203;-79
2022/03/04 06:10:02;;;;;;;34.90;22.13;;;;;;;;;;4996264;28;20198;-82
2022/03/04 06:12:30;;;;;;;33.90;21.23;;;;;;;;;;5010156;28;20209;-77
2022/03/04 06:14:56;;;;;;;35.43;22.13;;;;;;;;;;5009908;28;20187;-77
2022/03/04 06:17:22;;;;;;;36.20;22.57;;;;;;;;;;5010524;28;20230;-77
2022/03/04 06:19:48;;;;;;;37.83;22.97;;;;;;;;;;5012084;28;20203;-77
2022/03/04 06:22:18;;;;;;;34.77;22.43;;;;;;;;;;5010729;28;20275;-77
2022/03/04 06:24:44;;;;;;;37.23;22.67;;;;;;;;;;5010975;28;20187;-77
2022/03/04 06:27:10;;;;;;;36.20;22.40;;;;;;;;;;5008832;28;20230;-78
2022/03/04 06:29:37;;;;;;;38.80;23.20;;;;;;;;;;5008776;28;20233;-77
2022/03/04 06:32:03;;;;;;;34.93;21.97;;;;;;;;;;5008870;28;20203;-77
2022/03/04 06:34:29;;;;;;;35.63;23.13;;;;;;;;;;5009944;28;20221;-77
2022/03/04 06:36:55;;;;;;;36.20;22.17;;;;;;;;;;5009888;28;20211;-78
2022/03/04 06:39:21;;;;;;;35.73;22.80;;;;;;;;;;5010894;28;20261;-77
2022/03/04 06:41:48;;;;;;;40.13;23.10;;;;;;;;;;5009999;28;20449;-78
2022/03/04 06:44:14;;;;;;;38.30;24.50;;;;;;;;;;5011409;28;20182;-78
2022/03/04 06:46:41;;;;;;;37.07;24.00;;;;;;;;;;5010003;28;20195;-77
2022/03/04 06:49:11;;;;;;;36.20;23.10;;;;;;;;;;5010262;28;20186;-77
2022/03/04 06:51:37;;;;;;;33.87;22.03;;;;;;;;;;5010135;28;20194;-77
2022/03/04 06:54:04;;;;;;;35.57;22.37;;;;;;;;;;5010922;28;20774;-78
2022/03/04 06:56:30;;;;;;;33.37;20.23;;;;;;;;;;5007907;28;20294;-77
2022/03/04 06:58:56;;;;;;;34.93;22.33;;;;;;;;;;5007486;28;20253;-77
2022/03/04 07:01:22;;;;;;;32.70;21.23;;;;;;;;;;5006836;28;20190;-77
2022/03/04 07:03:49;;;;;;;38.80;22.30;;;;;;;;;;5010568;28;20297;-77
2022/03/04 07:06:16;;;;;;;33.73;21.90;;;;;;;;;;5008045;28;20262;-78
2022/03/04 07:08:42;;;;;;;35.93;22.43;;;;;;;;;;5009313;28;20628;-78
2022/03/04 07:11:09;;;;;;;34.77;22.47;;;;;;;;;;5008344;28;20580;-77
2022/03/04 07:13:35;;;;;;;37.37;23.20;;;;;;;;;;5010887;28;20758;-78
2022/03/04 07:16:01;;;;;;;34.60;22.07;;;;;;;;;;5009795;28;20179;-78
2022/03/04 07:18:31;;;;;;;36.37;22.70;;;;;;;;;;5009978;28;20265;-78
2022/03/04 07:21:01;;;;;;;35.80;22.60;;;;;;;;;;5025781;28;20182;-78
2022/03/04 07:23:28;;;;;;;36.47;22.87;;;;;;;;;;5008960;28;20211;-77
2022/03/04 07:25:55;;;;;;;37.57;23.40;;;;;;;;;;5008706;28;20182;-78
2022/03/04 07:28:21;;;;;;;36.67;23.10;;;;;;;;;;5005667;28;20663;-78
2022/03/04 07:30:47;;;;;;;36.37;22.43;;;;;;;;;;5008837;28;20256;-78
2022/03/04 07:33:13;;;;;;;35.17;24.80;;;;;;;;;;5008209;28;20229;-78
2022/03/04 07:35:44;;;;;;;36.63;23.13;;;;;;;;;;5009233;28;20252;-78
2022/03/04 07:38:12;;;;;;;39.57;25.20;;;;;;;;;;5008538;28;20217;-78
2022/03/04 07:40:39;;;;;;;37.47;24.13;;;;;;;;;;5026867;28;20183;-78
2022/03/04 07:43:05;;;;;;;37.27;24.03;;;;;;;;;;5007522;28;20183;-78
2022/03/04 07:45:31;;;;;;;40.10;24.23;;;;;;;;;;5008251;28;20206;-78
2022/03/04 07:47:57;;;;;;;35.63;22.50;;;;;;;;;;5008491;28;20330;-78
2022/03/04 07:50:24;;;;;;;37.60;24.53;;;;;;;;;;5010182;28;20179;-78
2022/03/04 07:52:50;;;;;;;38.57;23.50;;;;;;;;;;5004088;28;20198;-78
2022/03/04 07:55:16;;;;;;;37.10;24.90;;;;;;;;;;5008068;28;20180;-80
2022/03/04 07:57:43;;;;;;;39.00;25.07;;;;;;;;;;5009628;28;20213;-77
2022/03/04 08:00:11;;;;;;;37.00;24.33;;;;;;;;;;5007079;28;20192;-77
2022/03/04 08:02:38;;;;;;;37.80;24.90;;;;;;;;;;5005750;28;20186;-77
2022/03/04 08:05:06;;;;;;;39.37;25.50;;;;;;;;;;5008786;28;20193;-77
2022/03/04 08:07:33;;;;;;;38.73;25.40;;;;;;;;;;5008697;28;20250;-77
2022/03/04 08:09:59;;;;;;;39.87;26.13;;;;;;;;;;5009587;28;20659;-78
2022/03/04 08:12:25;;;;;;;36.20;24.90;;;;;;;;;;5009409;28;20719;-77
2022/03/04 08:14:52;;;;;;;37.27;24.30;;;;;;;;;;5007980;28;20187;-77
2022/03/04 08:17:18;;;;;;;38.23;24.37;;;;;;;;;;5007478;28;20201;-77
2022/03/04 08:19:44;;;;;;;37.03;24.57;;;;;;;;;;5008769;28;20199;-77
2022/03/04 08:22:11;;;;;;;39.97;24.93;;;;;;;;;;5007114;28;20278;-77
2022/03/04 08:24:37;;;;;;;37.70;25.13;;;;;;;;;;5006244;28;20663;-77
2022/03/04 08:27:03;;;;;;;36.27;25.43;;;;;;;;;;5008030;28;20207;-77
2022/03/04 08:29:29;;;;;;;38.90;25.73;;;;;;;;;;5007792;28;20191;-77
2022/03/04 08:31:55;;;;;;;38.97;25.17;;;;;;;;;;5009030;28;20812;-77
2022/03/04 08:34:22;;;;;;;41.50;25.30;;;;;;;;;;5004147;28;20191;-77
2022/03/04 08:36:49;;;;;;;40.83;25.87;;;;;;;;;;5007358;28;20207;-77
2022/03/04 08:39:16;;;;;;;35.60;24.20;;;;;;;;;;5008404;28;20294;-77
2022/03/04 08:41:43;;;;;;;37.37;24.97;;;;;;;;;;5006630;28;20188;-78
2022/03/04 08:44:09;;;;;;;37.30;25.43;;;;;;;;;;5009588;28;20215;-78
2022/03/04 08:46:39;;;;;;;39.00;24.27;;;;;;;;;;5012967;28;20203;-78
2022/03/04 08:49:05;;;;;;;39.10;26.40;;;;;;;;;;5011740;28;20218;-78
2022/03/04 08:51:31;;;;;;;39.60;26.70;;;;;;;;;;5006604;28;20526;-78
2022/03/04 08:53:58;;;;;;;37.83;25.40;;;;;;;;;;5013802;28;20206;-78
2022/03/04 08:56:24;;;;;;;37.77;25.50;;;;;;;;;;5014303;28;20183;-78
2022/03/04 08:58:50;;;;;;;37.73;25.87;;;;;;;;;;5009229;28;20215;-78
2022/03/04 09:01:17;;;;;;;36.90;25.73;;;;;;;;;;5010808;28;20817;-79
2022/03/04 09:03:44;;;;;;;35.87;25.03;;;;;;;;;;5009677;28;20266;-78
2022/03/04 09:06:10;;;;;;;37.40;25.60;;;;;;;;;;5007836;28;20184;-78
2022/03/04 09:08:37;;;;;;;39.33;26.03;;;;;;;;;;5007482;28;20214;-78
2022/03/04 09:11:03;;;;;;;37.57;24.13;;;;;;;;;;5008409;28;20184;-78
2022/03/04 09:13:32;;;;;;;40.43;26.23;;;;;;;;;;5009121;28;20191;-78
2022/03/04 09:15:58;;;;;;;39.97;25.43;;;;;;;;;;5012618;28;20534;-78
2022/03/04 09:18:25;;;;;;;36.53;25.07;;;;;;;;;;5011661;28;20218;-80
2022/03/04 09:20:51;;;;;;;34.33;23.73;;;;;;;;;;5012950;28;20932;-81
2022/03/04 09:23:17;;;;;;;38.13;25.70;;;;;;;;;;5007295;28;20195;-81
2022/03/04 09:25:43;;;;;;;39.37;25.13;;;;;;;;;;5011984;28;20245;-81
2022/03/04 09:28:10;;;;;;;37.03;25.00;;;;;;;;;;5010950;28;20275;-81
2022/03/04 09:30:37;;;;;;;37.73;25.13;;;;;;;;;;5010298;28;20187;-81
2022/03/04 09:33:03;;;;;;;36.43;24.77;;;;;;;;;;5010874;28;20180;-81
2022/03/04 09:35:29;;;;;;;37.87;25.90;;;;;;;;;;5011114;28;20270;-81
2022/03/04 09:37:56;;;;;;;35.37;24.03;;;;;;;;;;5007758;28;20207;-81
2022/03/04 09:40:22;;;;;;;35.33;23.90;;;;;;;;;;5010331;28;20184;-80
2022/03/04 09:42:48;;;;;;;37.53;24.03;;;;;;;;;;5010578;28;20175;-81
2022/03/04 09:45:14;;;;;;;35.80;22.87;;;;;;;;;;5011425;28;20275;-80
2022/03/04 09:47:43;;;;;;;35.50;24.37;;;;;;;;;;5016052;28;20758;-81
2022/03/04 09:50:09;;;;;;;37.33;25.27;;;;;;;;;;5012217;28;20211;-81
2022/03/04 09:52:37;;;;;;;35.43;23.53;;;;;;;;;;5010535;28;20199;-81
2022/03/04 09:55:03;;;;;;;34.90;23.37;;;;;;;;;;5013465;28;20187;-81
2022/03/04 09:57:30;;;;;;;33.77;23.90;;;;;;;;;;5010222;28;20285;-81
2022/03/04 09:59:56;;;;;;;34.43;24.80;;;;;;;;;;5010518;28;20226;-81
2022/03/04 10:02:25;;;;;;;37.20;25.13;;;;;;;;;;5008804;28;20230;-81
2022/03/04 10:05:00;;;;;;;36.83;24.57;;;;;;;;;;5012089;28;20168;-81
2022/03/04 10:07:27;;;;;;;38.53;25.13;;;;;;;;;;5007467;28;20215;-81
2022/03/04 10:09:54;;;;;;;37.97;24.20;;;;;;;;;;5012932;28;20526;-81
2022/03/04 10:12:22;;;;;;;33.10;23.00;;;;;;;;;;5012731;28;20277;-81
2022/03/04 10:15:05;;;;;;;35.70;23.47;;;;;;;;;;5011630;28;20195;-81
2022/03/04 10:17:32;;;;;;;36.60;24.60;;;;;;;;;;5010874;28;20207;-80
2022/03/04 10:20:03;;;;;;;35.33;25.43;;;;;;;;;;5008579;28;20243;-81
2022/03/04 10:22:38;;;;;;;35.10;24.10;;;;;;;;;;5014371;28;20184;-81
2022/03/04 10:25:19;;;;;;;30.80;21.73;;;;;;;;;;5006033;28;20182;-81
2022/03/04 10:27:47;;;;;;;34.43;23.30;;;;;;;;;;5006878;28;20261;-81
2022/03/04 10:30:15;;;;;;;38.00;24.67;;;;;;;;;;5000789;28;20183;-81
2022/03/04 10:32:42;;;;;;;34.43;23.23;;;;;;;;;;5011204;28;20519;-81
2022/03/04 10:35:09;;;;;;;36.93;26.40;;;;;;;;;;5008525;28;20655;-81
2022/03/04 10:37:41;;;;;;;34.83;24.80;;;;;;;;;;5008537;28;20277;-81
2022/03/04 10:40:13;;;;;;;36.40;24.80;;;;;;;;;;5008189;28;20218;-81
2022/03/04 10:42:42;;;;;;;38.40;25.37;;;;;;;;;;5027252;28;20631;-81
2022/03/04 10:45:18;;;;;;;35.33;25.23;;;;;;;;;;5012463;28;20441;-81
2022/03/04 10:47:46;;;;;;;33.40;23.87;;;;;;;;;;5009221;28;20241;-81
2022/03/04 10:50:15;;;;;;;35.47;25.47;;;;;;;;;;5013191;28;20179;-81
2022/03/04 10:52:52;;;;;;;37.37;25.57;;;;;;;;;;5010974;28;20187;-80
2022/03/04 10:55:25;;;;;;;34.13;23.27;;;;;;;;;;5013084;28;20167;-79
2022/03/04 10:57:52;;;;;;;34.20;24.37;;;;;;;;;;5010728;28;20195;-84
2022/03/04 11:00:25;;;;;;;41.67;26.83;;;;;;;;;;5010605;28;20179;-81
2022/03/04 11:02:52;;;;;;;38.10;27.33;;;;;;;;;;4992949;28;20217;-81
2022/03/04 11:05:18;;;;;;;40.60;27.37;;;;;;;;;;5013383;28;20182;-82
2022/03/04 11:07:45;;;;;;;39.53;27.77;;;;;;;;;;5008996;28;20234;-82
2022/03/04 11:10:11;;;;;;;40.97;27.03;;;;;;;;;;4995179;28;20655;-82
2022/03/04 11:12:40;;;;;;;36.37;25.67;;;;;;;;;;5011291;28;20198;-82
2022/03/04 11:15:06;;;;;;;35.17;25.73;;;;;;;;;;5011796;28;20183;-82
2022/03/04 11:17:33;;;;;;;38.93;26.23;;;;;;;;;;5015904;28;20191;-79
2022/03/04 11:19:59;;;;;;;33.37;22.43;;;;;;;;;;5012330;28;20287;-80
2022/03/04 11:22:26;;;;;;;28.50;20.43;;;;;;;;;;5010748;28;20208;-84
2022/03/04 11:24:53;;;;;;;35.90;25.10;;;;;;;;;;5011326;28;20190;-85
2022/03/04 11:27:20;;;;;;;37.33;25.93;;;;;;;;;;4993863;28;20218;-83
2022/03/04 11:29:46;;;;;;;35.97;24.37;;;;;;;;;;5009950;28;21312;-83
2022/03/04 11:32:12;;;;;;;37.70;25.07;;;;;;;;;;5011095;28;20198;-83
2022/03/04 11:34:46;;;;;;;33.37;24.23;;;;;;;;;;5010622;28;20222;-83
2022/03/04 11:37:19;;;;;;;32.57;23.27;;;;;;;;;;5004929;28;20257;-83
2022/03/04 11:40:33;;;;;;;35.20;23.90;;;;;;;;;;5010094;28;20245;-83
2022/03/04 11:42:53;;;;;;;34.17;23.80;;;;;;;;;;5005369;28;20186;-83
2022/03/04 11:45:31;;;;;;;32.80;23.90;;;;;;;;;;5009333;28;20226;-83
2022/03/04 11:48:02;;;;;;;35.93;25.80;;;;;;;;;;5013093;28;20210;-83
2022/03/04 11:50:31;;;;;;;36.13;25.33;;;;;;;;;;5012319;28;20201;-83
2022/03/04 11:53:12;;;;;;;35.27;24.50;;;;;;;;;;5010096;28;20183;-83
2022/03/04 11:55:38;;;;;;;33.93;23.83;;;;;;;;;;5008307;28;20179;-83
2022/03/04 11:58:05;;;;;;;36.60;25.83;;;;;;;;;;5008742;28;20679;-82
2022/03/04 12:00:33;;;;;;;30.23;21.77;;;;;;;;;;5012292;28;20209;-82
2022/03/04 12:03:09;;;;;;;18.27;14.10;;;;;;;;;;5017325;28;20179;-83
2022/03/04 12:05:37;;;;;;;18.47;13.57;;;;;;;;;;5004358;28;20194;-82
2022/03/04 12:08:03;;;;;;;17.23;12.60;;;;;;;;;;5001566;28;20214;-82
2022/03/04 12:10:37;;;;;;;16.13;11.47;;;;;;;;;;5011362;28;20226;-82
2022/03/04 12:13:03;;;;;;;15.80;11.63;;;;;;;;;;5009785;28;20205;-82
2022/03/04 12:15:31;;;;;;;16.40;12.03;;;;;;;;;;5013933;28;20910;-83
2022/03/04 12:18:17;;;;;;;17.73;13.10;;;;;;;;;;5010034;28;20195;-82
2022/03/04 12:20:43;;;;;;;17.77;13.30;;;;;;;;;;5011369;28;20743;-82
2022/03/04 12:23:10;;;;;;;19.53;14.33;;;;;;;;;;5003049;28;20561;-82
2022/03/04 12:25:55;;;;;;;18.23;13.30;;;;;;;;;;5011020;28;20198;-82
2022/03/04 12:28:25;;;;;;;20.70;14.23;;;;;;;;;;5015660;28;20214;-83
2022/03/04 12:31:01;;;;;;;18.53;13.37;;;;;;;;;;5013670;28;20259;-82
2022/03/04 12:33:34;;;;;;;17.30;14.00;;;;;;;;;;5010938;28;20188;-83
2022/03/04 12:36:01;;;;;;;17.37;14.17;;;;;;;;;;5012966;28;20183;-83
2022/03/04 12:38:37;;;;;;;21.80;16.73;;;;;;;;;;5015532;28;20206;-83
2022/03/04 12:41:03;;;;;;;21.90;17.90;;;;;;;;;;5011457;28;20261;-83
2022/03/04 12:43:30;;;;;;;20.80;17.37;;;;;;;;;;5014987;28;20236;-83
2022/03/04 12:45:56;;;;;;;25.63;19.30;;;;;;;;;;5014951;28;20175;-83
2022/03/04 12:48:23;;;;;;;23.30;18.43;;;;;;;;;;5016542;28;20207;-83
2022/03/04 12:50:49;;;;;;;21.87;17.70;;;;;;;;;;5013575;28;20527;-84
2022/03/04 12:53:23;;;;;;;21.27;17.53;;;;;;;;;;5012604;28;20714;-84
2022/03/04 12:55:53;;;;;;;19.70;16.33;;;;;;;;;;5014475;28;20191;-82
2022/03/04 12:58:38;;;;;;;18.73;15.50;;;;;;;;;;5010926;28;20218;-85
2022/03/04 13:01:05;;;;;;;20.03;16.63;;;;;;;;;;5026077;28;20309;-84
2022/03/04 13:03:35;;;;;;;16.53;12.87;;;;;;;;;;5012614;28;20179;-87
2022/03/04 13:06:03;;;;;;;14.27;11.80;;;;;;;;;;4995240;28;20234;-87
2022/03/04 13:08:31;;;;;;;16.17;12.77;;;;;;;;;;4995391;28;20219;-86
2022/03/04 13:11:10;;;;;;;15.30;12.93;;;;;;;;;;4999058;28;20241;-87
2022/03/04 13:13:45;;;;;;;14.10;11.90;;;;;;;;;;4989479;28;20183;-87
2022/03/04 13:16:13;;;;;;;14.60;12.20;;;;;;;;;;5014188;28;20178;-87
2022/03/04 13:18:40;;;;;;;14.93;12.47;;;;;;;;;;4977874;28;20214;-87
2022/03/04 13:21:07;;;;;;;13.80;11.03;;;;;;;;;;4996762;28;20180;-83
2022/03/04 13:23:34;;;;;;;13.73;11.63;;;;;;;;;;5012841;28;20191;-84
2022/03/04 13:26:07;;;;;;;14.03;11.80;;;;;;;;;;5030849;28;20262;-83
2022/03/04 13:28:52;;;;;;;13.57;11.00;;;;;;;;;;5013058;28;20215;-82
2022/03/04 13:31:21;;;;;;;12.43;10.57;;;;;;;;;;5012940;28;20179;-83
2022/03/04 13:33:48;;;;;;;13.43;11.23;;;;;;;;;;5012815;28;20199;-83
2022/03/04 13:36:14;;;;;;;13.60;12.20;;;;;;;;;;5014978;28;20176;-83
2022/03/04 13:38:40;;;;;;;14.67;12.03;;;;;;;;;;5011954;28;20220;-82
2022/03/04 13:41:20;;;;;;;14.00;11.87;;;;;;;;;;5012246;28;20257;-84
2022/03/04 13:43:46;;;;;;;14.80;13.30;;;;;;;;;;5013439;28;20179;-83
2022/03/04 13:46:13;;;;;;;12.90;11.20;;;;;;;;;;5009434;28;20179;-83
2022/03/04 13:48:39;;;;;;;13.87;11.53;;;;;;;;;;5009641;28;20343;-83
2022/03/04 13:51:11;;;;;;;14.30;12.50;;;;;;;;;;5012668;28;20183;-84
2022/03/04 13:53:54;;;;;;;17.67;13.00;;;;;;;;;;5025761;28;20222;-83
2022/03/04 13:56:21;;;;;;;16.73;13.03;;;;;;;;;;5009174;28;20270;-83
2022/03/04 13:58:56;;;;;;;13.40;11.60;;;;;;;;;;5012192;28;20262;-83
2022/03/04 14:01:22;;;;;;;13.53;11.60;;;;;;;;;;5013926;28;20183;-83
2022/03/04 14:03:48;;;;;;;16.47;11.77;;;;;;;;;;5009770;28;20195;-83
2022/03/04 14:06:15;;;;;;;14.10;11.60;;;;;;;;;;5012932;28;20219;-83
2022/03/04 14:08:42;;;;;;;13.97;12.10;;;;;;;;;;5012342;28;20203;-83
2022/03/04 14:11:09;;;;;;;14.77;12.43;;;;;;;;;;5012775;28;20175;-82
2022/03/04 14:13:36;;;;;;;13.60;12.20;;;;;;;;;;5011946;28;20187;-83
2022/03/04 14:16:03;;;;;;;13.73;12.23;;;;;;;;;;5001639;28;20708;-82
2022/03/04 14:18:29;;;;;;;15.63;12.83;;;;;;;;;;5012323;28;20354;-82
2022/03/04 14:21:03;;;;;;;15.47;12.70;;;;;;;;;;5013495;28;21192;-83